Time;durP1;ratioP1;P1;durP2;ratioP2;P2;SDS_P1;SDS_P2;PMS_P1;PMS_P2;Temp;Humidity;BMP_temperature;BMP_pressure;BME280_temperature;BME280_humidity;BME280_pressure;Samples;Min_cycle;Max_cycle;Signal;HPM_P1;HPM_P2
2022/07/04 06:30:29;;;;;;;6.30;4.85;;;16.40;99.90;;;;;;5111966;27;20375;-79
2022/07/04 06:33:13;;;;;;;8.30;4.60;;;16.40;99.90;;;;;;5127435;27;20472;-77
2022/07/04 06:35:58;;;;;;;5.97;3.97;;;16.50;99.90;;;;;;5103302;28;20408;-77
2022/07/04 06:38:42;;;;;;;4.82;3.58;;;16.60;99.90;;;;;;5109375;28;20453;-80
2022/07/04 06:41:27;;;;;;;8.27;2.97;;;16.80;99.90;;;;;;5107208;28;20419;-78
2022/07/04 06:44:12;;;;;;;6.90;3.10;;;16.90;99.90;;;;;;5110105;28;20411;-79
2022/07/04 06:46:55;;;;;;;5.70;2.50;;;17.10;99.90;;;;;;5098723;28;20497;-77
2022/07/04 06:49:40;;;;;;;6.10;2.33;;;17.20;99.90;;;;;;5107010;28;20414;-77
2022/07/04 06:52:24;;;;;;;4.60;2.90;;;17.30;99.90;;;;;;5098461;28;20439;-77
2022/07/04 06:55:08;;;;;;;5.22;2.75;;;17.40;99.90;;;;;;5113147;28;20468;-77
2022/07/04 06:57:52;;;;;;;5.38;2.80;;;17.50;99.90;;;;;;5108198;28;20494;-77
2022/07/04 07:00:36;;;;;;;3.53;2.70;;;17.60;99.90;;;;;;5112990;28;20404;-76
2022/07/04 07:03:20;;;;;;;5.28;2.70;;;17.70;99.90;;;;;;5099726;28;20409;-77
2022/07/04 07:06:05;;;;;;;5.88;2.67;;;17.80;99.90;;;;;;5102931;28;20430;-78
2022/07/04 07:08:49;;;;;;;6.22;2.60;;;17.90;99.90;;;;;;5109394;28;20431;-77
2022/07/04 07:11:33;;;;;;;6.60;2.20;;;18.00;99.90;;;;;;5114636;28;20472;-78
2022/07/04 07:14:17;;;;;;;7.27;2.30;;;18.00;99.90;;;;;;5104081;28;20424;-77
2022/07/04 07:17:02;;;;;;;3.10;1.75;;;18.10;99.90;;;;;;5104071;28;20419;-78
2022/07/04 07:19:46;;;;;;;4.82;1.70;;;18.10;99.90;;;;;;5100618;28;20513;-78
2022/07/04 07:22:31;;;;;;;3.17;2.05;;;18.20;99.90;;;;;;5102626;28;20546;-76
2022/07/04 07:25:15;;;;;;;4.97;2.10;;;18.30;99.90;;;;;;5104618;28;20412;-77
2022/07/04 07:28:00;;;;;;;3.97;1.80;;;18.30;99.90;;;;;;5104991;28;20458;-76
2022/07/04 07:30:44;;;;;;;5.32;1.70;;;18.50;99.90;;;;;;5105478;28;20423;-77
2022/07/04 07:33:28;;;;;;;4.93;1.75;;;18.50;99.90;;;;;;5115097;28;20402;-78
2022/07/04 07:36:12;;;;;;;3.45;1.77;;;18.60;99.90;;;;;;5103694;28;20906;-78
2022/07/04 07:38:56;;;;;;;4.78;1.90;;;18.60;99.90;;;;;;5101609;28;20452;-78
2022/07/04 07:41:41;;;;;;;4.63;1.80;;;18.70;99.90;;;;;;5085126;28;20423;-77
2022/07/04 07:44:26;;;;;;;4.93;1.77;;;18.80;99.90;;;;;;5088112;28;20396;-78
2022/07/04 07:47:09;;;;;;;2.20;1.87;;;18.90;99.90;;;;;;5087051;28;20437;-78
2022/07/04 07:49:53;;;;;;;3.47;1.70;;;18.90;99.90;;;;;;5092672;28;20936;-78
2022/07/04 07:52:38;;;;;;;3.78;1.38;;;19.00;99.90;;;;;;5087021;28;20413;-78
2022/07/04 07:55:22;;;;;;;4.67;1.70;;;19.00;99.90;;;;;;5079513;28;20409;-78
2022/07/04 07:58:06;;;;;;;5.00;1.40;;;19.10;99.90;;;;;;5085291;28;20500;-78
2022/07/04 08:00:50;;;;;;;6.20;1.73;;;19.10;99.90;;;;;;5085009;28;20440;-78
2022/07/04 08:06:38;;;;;;;2.67;1.00;;;19.30;99.90;;;;;;5085269;28;20408;-77
2022/07/04 08:09:22;;;;;;;2.90;1.10;;;19.40;99.90;;;;;;5083706;28;20475;-78
2022/07/04 08:12:07;;;;;;;3.72;1.10;;;19.50;99.90;;;;;;5085390;28;20427;-78
2022/07/04 08:14:51;;;;;;;2.43;0.90;;;19.50;99.90;;;;;;5085025;28;20451;-77
2022/07/04 08:17:35;;;;;;;3.40;1.00;;;19.40;99.90;;;;;;5083415;28;20462;-78
2022/07/04 08:20:19;;;;;;;5.18;1.20;;;19.50;99.90;;;;;;5082087;28;20412;-78
2022/07/04 08:23:03;;;;;;;2.13;1.10;;;19.50;99.90;;;;;;5085178;28;20424;-78
2022/07/04 08:25:47;;;;;;;4.97;1.15;;;19.60;99.90;;;;;;5084735;28;20401;-78
2022/07/04 08:28:37;;;;;;;2.67;0.90;;;19.70;99.90;;;;;;5095786;28;20500;-78
2022/07/04 08:31:22;;;;;;;2.67;1.25;;;19.90;99.90;;;;;;5107276;27;20449;-78
2022/07/04 08:34:06;;;;;;;2.42;0.80;;;20.00;99.90;;;;;;5107088;27;20439;-78
2022/07/04 08:36:50;;;;;;;2.95;0.82;;;20.10;99.90;;;;;;5100783;27;20414;-78
2022/07/04 08:39:34;;;;;;;3.15;1.10;;;20.10;99.90;;;;;;5102075;28;20480;-78
2022/07/04 08:42:20;;;;;;;1.93;1.00;;;20.20;99.90;;;;;;5108044;27;20423;-77
2022/07/04 08:45:06;;;;;;;2.83;0.87;;;20.30;99.90;;;;;;5105692;27;20435;-78
2022/07/04 08:47:55;;;;;;;3.55;0.88;;;20.40;99.90;;;;;;5103809;28;20451;-77
2022/07/04 08:50:51;;;;;;;3.25;0.93;;;20.50;99.90;;;;;;5104941;27;20457;-78
2022/07/04 08:53:38;;;;;;;2.15;0.80;;;20.50;99.90;;;;;;5099855;28;20454;-78
2022/07/04 08:59:27;;;;;;;4.13;0.90;;;20.50;99.90;;;;;;5108489;28;20442;-78
2022/07/04 09:02:14;;;;;;;4.30;0.88;;;20.70;99.90;;;;;;5103534;27;20420;-78
2022/07/04 09:04:59;;;;;;;2.72;1.10;;;20.90;99.90;;;;;;5104133;28;20470;-78
2022/07/04 09:07:44;;;;;;;4.35;1.02;;;21.10;99.90;;;;;;5098538;28;20843;-78
2022/07/04 09:10:29;;;;;;;2.47;1.13;;;21.10;99.90;;;;;;5109306;27;20408;-79
2022/07/04 09:13:15;;;;;;;3.20;0.90;;;21.10;99.90;;;;;;5101857;27;20478;-79
2022/07/04 09:16:00;;;;;;;2.92;1.05;;;21.10;99.90;;;;;;5104240;27;20438;-80
2022/07/04 09:18:45;;;;;;;3.53;0.98;;;21.20;99.90;;;;;;5109111;28;20419;-79
2022/07/04 09:21:51;;;;;;;4.65;1.20;;;21.20;99.90;;;;;;5103892;27;20452;-80
2022/07/04 09:24:46;;;;;;;3.33;0.98;;;21.10;99.90;;;;;;5108501;27;20407;-80
2022/07/04 09:27:36;;;;;;;2.80;0.82;;;21.20;99.90;;;;;;5111822;27;20399;-80
2022/07/04 09:30:26;;;;;;;3.45;1.00;;;21.30;99.90;;;;;;5108678;28;20462;-79
2022/07/04 09:33:11;;;;;;;3.58;0.93;;;21.40;99.90;;;;;;5106892;27;20418;-79
2022/07/04 09:35:55;;;;;;;3.92;1.10;;;21.30;99.90;;;;;;5105571;27;20416;-79
2022/07/04 09:38:39;;;;;;;1.52;0.70;;;21.20;99.90;;;;;;5108836;27;20431;-79
2022/07/04 09:41:29;;;;;;;4.20;1.10;;;21.10;99.90;;;;;;5105817;28;20438;-80
2022/07/04 09:44:14;;;;;;;2.63;0.90;;;21.10;99.90;;;;;;5109132;27;20469;-80
2022/07/04 09:46:58;;;;;;;2.42;0.90;;;21.10;99.90;;;;;;5107801;27;21047;-79
2022/07/04 09:50:06;;;;;;;4.78;1.10;;;21.20;99.90;;;;;;5104715;28;20503;-81
2022/07/04 09:53:01;;;;;;;2.33;1.02;;;21.40;99.90;;;;;;5109503;28;20419;-81
2022/07/04 09:55:46;;;;;;;2.92;1.10;;;21.50;99.90;;;;;;5106908;27;20493;-80
2022/07/04 09:58:30;;;;;;;1.38;0.82;;;21.50;99.90;;;;;;5107758;27;20552;-80
2022/07/04 10:01:19;;;;;;;2.92;0.98;;;21.40;99.90;;;;;;5106293;28;20482;-79
2022/07/04 10:04:04;;;;;;;5.28;0.90;;;21.40;99.90;;;;;;5104455;28;21002;-80
2022/07/04 10:06:48;;;;;;;3.80;0.90;;;21.50;99.90;;;;;;5107898;28;20399;-80
2022/07/04 10:09:32;;;;;;;2.95;0.73;;;21.60;99.90;;;;;;5108856;28;20438;-80
2022/07/04 10:12:26;;;;;;;2.85;0.73;;;21.70;99.90;;;;;;5103523;27;20419;-81
2022/07/04 10:15:10;;;;;;;1.90;0.80;;;21.90;99.90;;;;;;5109312;27;20403;-80
2022/07/04 10:17:54;;;;;;;4.35;0.82;;;21.90;99.90;;;;;;5106856;28;20850;-78
2022/07/04 10:20:38;;;;;;;3.28;0.90;;;22.00;99.90;;;;;;5102681;28;20466;-79
2022/07/04 10:23:25;;;;;;;1.58;0.90;;;22.10;99.90;;;;;;5106228;28;20408;-80
2022/07/04 10:26:10;;;;;;;3.28;1.00;;;22.20;99.90;;;;;;5107031;28;20433;-80
2022/07/04 10:28:54;;;;;;;1.98;0.80;;;22.30;99.90;;;;;;5103402;28;20472;-80
2022/07/04 10:31:39;;;;;;;2.47;0.80;;;22.30;99.90;;;;;;5104621;28;20411;-80
2022/07/04 10:34:25;;;;;;;3.50;1.05;;;22.40;99.90;;;;;;5106725;28;20439;-79
2022/07/04 10:37:09;;;;;;;2.78;0.88;;;22.50;99.90;;;;;;5105105;28;20413;-80
2022/07/04 10:39:53;;;;;;;3.67;0.90;;;22.70;99.90;;;;;;5104599;28;20418;-79
2022/07/04 10:42:37;;;;;;;2.75;0.88;;;22.80;99.90;;;;;;5104792;28;20399;-79
2022/07/04 10:45:34;;;;;;;3.37;1.50;;;22.80;99.90;;;;;;5103355;28;20460;-78
2022/07/04 10:48:25;;;;;;;4.47;0.98;;;22.80;99.90;;;;;;5104428;28;20821;-78
2022/07/04 10:51:09;;;;;;;2.25;0.70;;;22.80;99.90;;;;;;5105230;28;20408;-79
2022/07/04 10:54:11;;;;;;;2.45;0.77;;;22.90;99.90;;;;;;5100131;28;20539;-79
2022/07/04 10:56:56;;;;;;;3.10;0.80;;;23.10;99.90;;;;;;5104747;28;20388;-79
2022/07/04 10:59:56;;;;;;;1.73;0.77;;;23.10;99.90;;;;;;5118549;27;20768;-79
2022/07/04 11:02:41;;;;;;;2.78;0.80;;;23.20;99.90;;;;;;5103146;28;20400;-79
2022/07/04 11:05:32;;;;;;;4.30;0.90;;;23.30;99.90;;;;;;5103679;28;20407;-78
2022/07/04 11:08:17;;;;;;;3.27;0.80;;;23.20;99.90;;;;;;5102017;28;20407;-79
2022/07/04 11:11:05;;;;;;;4.85;1.00;;;23.20;99.90;;;;;;5104953;28;20411;-76
2022/07/04 11:14:28;;;;;;;7.50;1.05;;;23.10;99.90;;;;;;5103103;28;20399;-77
2022/07/04 11:17:14;;;;;;;2.35;0.75;;;23.00;99.90;;;;;;5119316;27;20476;-77
2022/07/04 11:20:00;;;;;;;1.57;0.80;;;22.90;99.90;;;;;;5103480;27;20449;-77
2022/07/04 11:22:44;;;;;;;3.38;1.10;;;22.90;99.90;;;;;;5099292;28;20457;-77
2022/07/04 11:25:29;;;;;;;3.08;0.75;;;22.90;99.90;;;;;;5105299;27;20942;-77
2022/07/04 11:28:24;;;;;;;1.60;0.80;;;22.80;99.90;;;;;;5107210;27;20461;-77
2022/07/04 11:31:10;;;;;;;3.83;1.10;;;22.80;99.90;;;;;;5097865;27;20493;-77
2022/07/04 11:33:54;;;;;;;3.05;0.85;;;22.80;99.90;;;;;;5104672;27;20548;-77
2022/07/04 11:36:41;;;;;;;4.63;1.20;;;22.80;99.90;;;;;;5097154;28;20487;-77
2022/07/04 11:39:26;;;;;;;2.93;1.00;;;22.80;99.90;;;;;;5102808;27;20501;-76
2022/07/04 11:45:13;;;;;;;3.55;1.00;;;22.90;99.90;;;;;;5102928;27;20440;-76
2022/07/04 11:47:57;;;;;;;4.60;1.02;;;22.90;99.90;;;;;;5107134;27;20415;-76
2022/07/04 11:50:41;;;;;;;2.08;0.90;;;22.90;99.90;;;;;;5103465;28;20449;-76
2022/07/04 11:53:25;;;;;;;4.28;1.10;;;22.90;99.90;;;;;;5102970;28;20446;-76
2022/07/04 11:56:09;;;;;;;4.43;1.25;;;22.90;99.90;;;;;;5105396;27;20449;-75
2022/07/04 11:58:53;;;;;;;3.70;1.02;;;22.90;99.90;;;;;;5105967;27;20473;-76
2022/07/04 12:01:38;;;;;;;5.00;1.10;;;23.00;99.90;;;;;;5101593;28;20546;-76
2022/07/04 12:04:22;;;;;;;7.70;1.20;;;23.00;99.90;;;;;;5104702;28;20415;-75
2022/07/04 12:07:15;;;;;;;2.55;1.05;;;23.00;99.90;;;;;;5102118;27;21059;-76
2022/07/04 12:10:22;;;;;;;4.57;1.03;;;23.10;99.90;;;;;;5104765;28;20415;-75
2022/07/04 12:13:14;;;;;;;2.22;1.00;;;23.20;99.90;;;;;;5101704;27;20422;-76
2022/07/04 12:15:58;;;;;;;3.00;0.95;;;23.20;99.90;;;;;;5101216;28;20441;-75
2022/07/04 12:18:43;;;;;;;4.43;1.00;;;23.20;99.90;;;;;;5100173;28;20951;-76
2022/07/04 12:21:28;;;;;;;3.47;1.00;;;23.20;99.90;;;;;;5104728;27;20403;-75
2022/07/04 12:24:14;;;;;;;2.73;1.20;;;23.20;99.90;;;;;;5098495;28;20421;-77
2022/07/04 12:26:58;;;;;;;3.03;1.13;;;23.10;99.90;;;;;;5102736;27;20399;-75
2022/07/04 12:29:47;;;;;;;5.43;1.27;;;23.10;99.90;;;;;;5105414;27;20468;-76
2022/07/04 12:32:49;;;;;;;3.92;1.20;;;23.10;99.90;;;;;;5100663;27;20500;-75
2022/07/04 12:35:47;;;;;;;3.53;1.10;;;23.10;99.90;;;;;;5104265;27;20456;-75
2022/07/04 12:38:37;;;;;;;5.20;1.20;;;23.10;99.90;;;;;;5098532;28;20427;-76
2022/07/04 12:41:30;;;;;;;3.80;1.00;;;23.10;99.90;;;;;;5099881;28;20468;-76
2022/07/04 12:44:21;;;;;;;1.75;1.00;;;23.10;99.90;;;;;;5101808;27;20975;-76
2022/07/04 12:47:05;;;;;;;5.03;1.23;;;23.10;99.90;;;;;;5101953;27;20404;-76
2022/07/04 12:49:49;;;;;;;3.30;1.10;;;23.10;99.90;;;;;;5102812;28;20451;-76
2022/07/04 12:52:34;;;;;;;4.70;1.02;;;23.20;99.90;;;;;;5102500;27;20491;-77
2022/07/04 12:55:18;;;;;;;3.00;1.00;;;23.30;99.90;;;;;;5104258;27;20884;-77
2022/07/04 12:58:02;;;;;;;3.60;1.10;;;23.40;99.90;;;;;;5104592;27;20484;-76
2022/07/04 13:00:46;;;;;;;4.28;1.00;;;23.50;99.90;;;;;;5101081;27;20493;-76
2022/07/04 13:03:30;;;;;;;3.15;1.02;;;23.60;99.90;;;;;;5106354;27;20442;-77
2022/07/04 13:06:15;;;;;;;3.63;1.07;;;23.70;99.90;;;;;;5103324;28;20423;-76
2022/07/04 13:08:59;;;;;;;4.18;1.15;;;23.80;99.90;;;;;;5103965;28;20411;-76
2022/07/04 13:14:46;;;;;;;4.13;0.98;;;23.80;99.90;;;;;;5107009;27;20435;-76
2022/07/04 13:17:30;;;;;;;4.22;1.20;;;23.80;99.90;;;;;;5104393;27;20415;-76
2022/07/04 13:20:14;;;;;;;3.33;0.95;;;23.90;99.90;;;;;;5102769;28;20423;-77
2022/07/04 13:22:58;;;;;;;3.80;1.10;;;23.90;99.90;;;;;;5109421;27;20400;-76
2022/07/04 13:25:42;;;;;;;4.38;1.20;;;24.00;99.90;;;;;;5103141;27;20403;-76
2022/07/04 13:28:26;;;;;;;2.78;1.20;;;24.10;99.90;;;;;;5105350;27;20476;-76
2022/07/04 13:31:11;;;;;;;3.97;0.95;;;24.00;99.90;;;;;;5100681;28;20419;-76
2022/07/04 13:33:56;;;;;;;3.40;1.30;;;23.90;99.90;;;;;;5104310;27;20446;-76
2022/07/04 13:36:40;;;;;;;3.30;1.10;;;24.00;99.90;;;;;;5100943;28;20933;-76
2022/07/04 13:39:24;;;;;;;3.75;1.10;;;24.10;99.90;;;;;;5105614;27;20926;-76
2022/07/04 13:42:09;;;;;;;4.95;1.30;;;24.10;99.90;;;;;;5100710;28;20418;-77
2022/07/04 13:44:53;;;;;;;3.78;1.05;;;24.00;99.90;;;;;;5105862;27;20400;-77
2022/07/04 13:47:38;;;;;;;3.92;1.20;;;24.00;99.90;;;;;;5102883;27;20945;-77
2022/07/04 13:50:22;;;;;;;2.17;0.90;;;24.00;99.90;;;;;;5098531;28;20407;-76
2022/07/04 13:53:08;;;;;;;2.35;1.00;;;24.10;99.90;;;;;;5102594;27;20397;-77
2022/07/04 13:55:52;;;;;;;4.00;1.10;;;24.20;99.90;;;;;;5102872;28;20450;-77
2022/07/04 13:58:37;;;;;;;3.80;1.20;;;24.30;99.90;;;;;;5104762;28;20557;-76
2022/07/04 14:01:21;;;;;;;3.78;1.10;;;24.30;99.90;;;;;;5102441;27;20810;-76
2022/07/04 14:04:05;;;;;;;5.97;1.40;;;24.30;99.90;;;;;;5103864;27;20391;-76
2022/07/04 14:06:49;;;;;;;2.58;1.10;;;24.30;99.90;;;;;;5102246;28;20401;-76
2022/07/04 14:09:33;;;;;;;3.83;1.20;;;24.30;99.90;;;;;;5104428;27;20807;-76
2022/07/04 14:12:18;;;;;;;3.60;1.08;;;24.10;99.90;;;;;;5101771;27;20439;-77
2022/07/04 14:15:03;;;;;;;8.20;1.30;;;24.20;99.90;;;;;;5104468;28;20445;-77
2022/07/04 14:17:47;;;;;;;2.97;1.17;;;24.20;99.90;;;;;;5103667;28;20443;-77
2022/07/04 14:20:31;;;;;;;5.15;1.38;;;24.30;99.90;;;;;;5099706;28;20534;-76
2022/07/04 14:23:39;;;;;;;3.53;1.10;;;24.30;99.90;;;;;;5101904;27;20404;-76
2022/07/04 14:26:24;;;;;;;4.80;1.10;;;24.30;99.90;;;;;;5104889;28;20830;-76
2022/07/04 14:29:08;;;;;;;3.95;1.15;;;24.30;99.90;;;;;;5102487;28;20445;-76
2022/07/04 14:31:53;;;;;;;5.35;1.27;;;24.30;99.90;;;;;;5098477;28;20419;-77
2022/07/04 14:34:37;;;;;;;5.53;1.40;;;24.30;99.90;;;;;;5099980;28;20433;-78
2022/07/04 14:37:21;;;;;;;4.37;1.10;;;24.40;99.90;;;;;;5104031;28;20447;-77
2022/07/04 14:40:06;;;;;;;3.70;1.10;;;24.40;99.90;;;;;;5100932;28;20431;-77
2022/07/04 14:42:50;;;;;;;2.60;0.93;;;24.40;99.90;;;;;;5103761;28;20489;-77
2022/07/04 14:45:34;;;;;;;3.38;1.00;;;24.50;99.90;;;;;;5099373;28;20399;-78
2022/07/04 14:48:18;;;;;;;2.50;1.05;;;24.60;99.90;;;;;;5101418;28;20442;-76
2022/07/04 14:51:03;;;;;;;2.17;1.00;;;24.60;99.90;;;;;;5102882;27;20411;-80
2022/07/04 14:53:47;;;;;;;4.18;1.10;;;24.70;99.90;;;;;;5103764;28;20467;-77
2022/07/04 14:56:31;;;;;;;3.42;1.05;;;24.70;99.90;;;;;;5107125;27;20403;-77
2022/07/04 14:59:15;;;;;;;3.95;1.10;;;24.70;99.90;;;;;;5103707;27;20419;-78
2022/07/04 15:02:00;;;;;;;3.50;1.20;;;24.70;99.90;;;;;;5102629;28;20425;-78
2022/07/04 15:04:44;;;;;;;5.78;1.20;;;24.60;99.90;;;;;;5103146;28;20486;-78
2022/07/04 15:07:29;;;;;;;2.97;0.90;;;24.70;99.90;;;;;;5103238;27;20427;-78
2022/07/04 15:10:14;;;;;;;3.67;1.20;;;24.70;99.90;;;;;;5103361;27;20507;-77
2022/07/04 15:12:58;;;;;;;6.65;1.20;;;24.60;99.90;;;;;;5108352;27;20419;-78
2022/07/04 15:15:42;;;;;;;4.55;1.00;;;24.60;99.90;;;;;;5099667;28;20439;-78
2022/07/04 15:18:26;;;;;;;3.35;1.02;;;24.60;99.90;;;;;;5104830;28;20978;-77
2022/07/04 15:24:16;;;;;;;3.22;1.00;;;24.60;99.90;;;;;;5105833;27;20506;-78
2022/07/04 15:27:01;;;;;;;5.97;1.20;;;24.60;99.90;;;;;;5102746;28;20441;-79
2022/07/04 15:29:45;;;;;;;3.20;1.10;;;24.50;99.90;;;;;;5103773;27;20930;-77
2022/07/04 15:32:29;;;;;;;4.03;0.90;;;24.50;99.90;;;;;;5104814;28;20515;-77
2022/07/04 15:35:13;;;;;;;3.03;1.02;;;24.50;99.90;;;;;;5110795;27;20412;-77
2022/07/04 15:37:57;;;;;;;4.28;1.10;;;24.50;99.90;;;;;;5108577;27;20444;-76
2022/07/04 15:40:42;;;;;;;3.95;1.20;;;24.60;99.90;;;;;;5104929;27;20470;-78
2022/07/04 15:43:27;;;;;;;2.42;1.00;;;24.70;99.90;;;;;;5104281;28;20469;-79
2022/07/04 15:46:12;;;;;;;3.80;1.15;;;24.60;99.90;;;;;;5101793;27;20607;-78
2022/07/04 15:48:56;;;;;;;3.25;0.90;;;24.50;99.90;;;;;;5107252;27;20903;-77
2022/07/04 15:51:40;;;;;;;2.30;1.00;;;24.50;99.90;;;;;;5107036;27;20933;-78
2022/07/04 15:54:24;;;;;;;3.55;1.10;;;24.50;99.90;;;;;;5103765;27;20535;-78
2022/07/04 15:57:08;;;;;;;3.13;0.93;;;24.60;99.90;;;;;;5101097;28;20415;-77
2022/07/04 15:59:52;;;;;;;2.05;0.95;;;24.60;99.90;;;;;;5104335;28;20423;-78
2022/07/04 16:02:36;;;;;;;3.72;0.90;;;24.50;99.90;;;;;;5104250;28;20453;-78
2022/07/04 16:05:20;;;;;;;3.63;1.03;;;24.50;99.90;;;;;;5103659;28;20829;-77
2022/07/04 16:08:05;;;;;;;3.63;0.88;;;24.50;99.90;;;;;;5103956;27;20407;-78
2022/07/04 16:10:49;;;;;;;3.08;0.80;;;24.50;99.90;;;;;;5105011;27;20578;-77
2022/07/04 16:13:33;;;;;;;3.15;1.17;;;24.50;99.90;;;;;;5101635;28;20420;-77
2022/07/04 16:16:17;;;;;;;1.60;0.77;;;24.50;99.90;;;;;;5099060;28;20506;-78
2022/07/04 16:19:04;;;;;;;3.83;1.00;;;24.50;99.90;;;;;;5103014;27;20972;-78
2022/07/04 16:21:48;;;;;;;1.60;0.80;;;24.50;99.90;;;;;;5104398;27;20410;-78
2022/07/04 16:24:32;;;;;;;2.78;1.00;;;24.60;99.90;;;;;;5106392;27;20415;-78
2022/07/04 16:27:16;;;;;;;4.40;1.23;;;24.70;99.90;;;;;;5103900;27;20419;-78
2022/07/04 16:30:00;;;;;;;2.55;1.00;;;24.70;99.90;;;;;;5104969;27;20407;-77
2022/07/04 16:32:44;;;;;;;4.10;1.20;;;24.50;99.90;;;;;;5100715;27;20412;-77
2022/07/04 16:35:28;;;;;;;3.00;0.93;;;24.30;99.90;;;;;;5105604;27;20513;-78
2022/07/04 16:38:13;;;;;;;3.67;0.98;;;24.30;99.90;;;;;;5102552;28;20484;-79
2022/07/04 16:40:59;;;;;;;2.58;0.95;;;24.30;99.90;;;;;;5101734;27;20415;-77
2022/07/04 16:43:43;;;;;;;3.17;1.00;;;24.30;99.90;;;;;;5103250;27;20469;-78
2022/07/04 16:46:28;;;;;;;1.63;0.90;;;24.10;99.90;;;;;;5099528;28;20451;-78
2022/07/04 16:49:12;;;;;;;2.90;1.10;;;24.00;99.90;;;;;;5103645;28;20540;-77
2022/07/04 16:51:56;;;;;;;4.90;1.10;;;24.00;99.90;;;;;;5100741;27;20544;-77
2022/07/04 16:54:40;;;;;;;4.35;0.88;;;24.00;99.90;;;;;;5103718;27;20412;-78
2022/07/04 16:57:24;;;;;;;2.45;0.85;;;24.00;99.90;;;;;;5101331;28;20461;-78
2022/07/04 17:00:09;;;;;;;2.95;1.00;;;24.10;99.90;;;;;;5107886;27;20406;-78
2022/07/04 17:02:53;;;;;;;1.95;0.80;;;24.10;99.90;;;;;;5107764;27;20433;-77
2022/07/04 17:05:38;;;;;;;4.38;0.95;;;24.10;99.90;;;;;;5092036;28;20411;-78
2022/07/04 17:08:22;;;;;;;3.17;0.90;;;24.10;99.90;;;;;;5101819;27;20452;-78
2022/07/04 17:11:06;;;;;;;4.05;0.80;;;24.10;99.90;;;;;;5098352;27;20438;-78
2022/07/04 17:13:53;;;;;;;3.78;1.00;;;24.10;99.90;;;;;;5100543;27;20507;-78
2022/07/04 17:16:37;;;;;;;3.78;1.10;;;24.10;99.90;;;;;;5094170;28;20529;-78
2022/07/04 17:19:21;;;;;;;5.75;2.50;;;24.10;99.90;;;;;;5097260;27;20419;-78
2022/07/04 17:22:06;;;;;;;5.18;2.50;;;24.00;99.90;;;;;;5095788;27;20431;-78
2022/07/04 17:24:51;;;;;;;3.47;1.00;;;23.90;99.90;;;;;;5098316;27;20428;-77
2022/07/04 17:27:35;;;;;;;1.67;0.80;;;23.80;99.90;;;;;;5097528;27;20396;-78
2022/07/04 17:30:20;;;;;;;2.50;0.88;;;23.60;99.90;;;;;;5099775;27;20606;-78
2022/07/04 17:33:04;;;;;;;3.42;1.00;;;23.60;99.90;;;;;;5098447;27;20436;-78
2022/07/04 17:35:48;;;;;;;3.50;0.90;;;23.60;99.90;;;;;;5103779;27;20446;-77
2022/07/04 17:38:32;;;;;;;4.63;1.02;;;23.60;99.90;;;;;;5100582;28;20445;-78
2022/07/04 17:44:21;;;;;;;1.27;0.80;;;23.50;99.90;;;;;;5105584;28;20411;-77
2022/07/04 17:47:06;;;;;;;2.30;0.80;;;23.40;99.90;;;;;;5105183;27;20463;-77
2022/07/04 17:49:50;;;;;;;3.00;0.80;;;23.30;99.90;;;;;;5109412;27;20902;-76
2022/07/04 17:52:34;;;;;;;3.13;1.02;;;23.30;99.90;;;;;;5117788;27;20423;-78
2022/07/04 17:55:18;;;;;;;1.55;0.80;;;23.20;99.90;;;;;;5122923;27;20435;-78
2022/07/04 17:58:02;;;;;;;2.73;0.90;;;23.10;99.90;;;;;;5107036;27;20410;-77
2022/07/04 18:00:46;;;;;;;1.20;0.70;;;23.00;99.90;;;;;;5103616;27;20414;-77
2022/07/04 18:03:31;;;;;;;3.03;0.85;;;23.10;99.90;;;;;;5102976;28;20442;-77
2022/07/04 18:06:16;;;;;;;4.03;0.88;;;23.00;99.90;;;;;;5104620;27;20487;-77
2022/07/04 18:09:05;;;;;;;1.63;0.70;;;22.90;99.90;;;;;;5106584;28;20525;-76
2022/07/04 18:11:49;;;;;;;2.67;0.80;;;22.90;99.90;;;;;;5103475;28;20456;-76
2022/07/04 18:14:33;;;;;;;3.93;0.97;;;22.90;99.90;;;;;;5104095;28;20425;-77
2022/07/04 18:17:18;;;;;;;1.60;0.80;;;22.90;99.90;;;;;;5110022;27;20443;-77
2022/07/04 18:20:06;;;;;;;2.20;0.70;;;22.80;99.90;;;;;;5107782;28;20443;-77
2022/07/04 18:22:51;;;;;;;0.98;0.60;;;22.80;99.90;;;;;;5101794;28;20449;-76
2022/07/04 18:25:35;;;;;;;3.13;0.80;;;22.80;99.90;;;;;;5108622;28;20910;-76
2022/07/04 18:28:20;;;;;;;1.05;0.70;;;22.70;99.90;;;;;;5107510;28;20495;-76
2022/07/04 18:31:09;;;;;;;1.70;0.60;;;22.80;99.90;;;;;;5111347;28;20412;-77
2022/07/04 18:33:54;;;;;;;2.60;0.80;;;22.80;99.90;;;;;;5107602;28;20870;-76
2022/07/04 18:36:38;;;;;;;1.73;0.70;;;22.80;99.90;;;;;;5110074;28;20418;-76
2022/07/04 18:39:23;;;;;;;4.03;0.83;;;22.70;99.90;;;;;;5105983;28;20422;-77
2022/07/04 18:45:11;;;;;;;2.60;0.70;;;22.50;99.90;;;;;;5101691;28;20414;-77
2022/07/04 18:47:55;;;;;;;2.45;0.73;;;22.60;99.90;;;;;;5113430;28;20449;-76
2022/07/04 18:50:40;;;;;;;2.13;0.70;;;22.50;99.90;;;;;;5110725;28;20468;-77
2022/07/04 19:02:04;;;;;;;3.25;0.80;;;22.40;99.90;;;;;;5045350;28;20461;-76
2022/07/04 19:14:15;;;;;;;1.83;0.80;;;21.90;99.90;;;;;;4982364;28;20428;-79
2022/07/04 19:17:56;;;;;;;;;;;;;;;;;;;;;
2022/07/04 19:25:56;;;;;;;;;;;;;;;;;;;;;
2022/07/04 19:29:14;;;;;;;2.43;0.70;;;21.70;99.90;;;;;;4982107;28;20437;-78
2022/07/04 19:35:32;;;;;;;1.55;0.77;;;21.50;99.90;;;;;;5044680;28;20399;-79
2022/07/04 19:39:49;;;;;;;;;;;;;;;;;;;;;
2022/07/04 19:46:46;;;;;;;1.50;0.70;;;21.20;99.90;;;;;;4933663;28;20639;-78
2022/07/04 19:50:07;;;;;;;;;;;;;;;;;;;;;
2022/07/04 19:52:58;;;;;;;1.77;0.70;;;21.10;99.90;;;;;;5049212;28;20475;-78
2022/07/04 19:56:00;;;;;;;;;;;;;;;;;;;;;
2022/07/04 19:59:10;;;;;;;1.38;0.73;;;21.00;99.90;;;;;;5049085;28;20475;-76
2022/07/04 20:02:32;;;;;;;0.90;0.70;;;20.90;99.90;;;;;;5048438;28;20432;-78
2022/07/04 20:05:36;;;;;;;3.55;0.90;;;20.80;99.90;;;;;;5062341;28;20444;-77
2022/07/04 20:09:22;;;;;;;1.35;0.60;;;20.70;99.90;;;;;;5050795;28;20420;-78
2022/07/04 20:13:12;;;;;;;1.17;0.60;;;20.60;99.90;;;;;;4977203;28;20435;-78
2022/07/04 20:23:37;;;;;;;2.50;0.80;;;20.40;99.90;;;;;;5044393;28;20431;-79
2022/07/04 20:34:26;;;;;;;2.25;0.73;;;20.30;99.90;;;;;;4987282;28;20445;-79
2022/07/04 20:37:48;;;;;;;;;;;;;;;;;;;;;
2022/07/04 20:41:34;;;;;;;1.37;0.77;;;20.10;99.90;;;;;;5021729;28;20451;-79
2022/07/04 20:45:21;;;;;;;;;;;;;;;;;;;;;
2022/07/04 20:48:34;;;;;;;1.40;0.70;;;20.00;99.90;;;;;;4918209;28;20577;-78
2022/07/04 21:10:44;;;;;;;4.30;0.90;;;19.50;99.90;;;;;;4993451;28;20423;-79
2022/07/04 21:14:56;;;;;;;2.53;0.83;;;19.40;99.90;;;;;;5008905;28;20437;-77
2022/07/04 21:18:23;;;;;;;2.17;0.90;;;19.30;99.90;;;;;;4969229;28;20445;-77
2022/07/04 21:21:08;;;;;;;3.47;0.80;;;19.20;99.90;;;;;;4956577;28;20448;-78
2022/07/04 21:23:53;;;;;;;2.40;0.85;;;19.10;99.90;;;;;;5006279;28;20432;-80
2022/07/04 21:26:40;;;;;;;1.98;1.00;;;19.10;99.90;;;;;;4999272;28;20439;-77
2022/07/04 21:29:25;;;;;;;2.33;0.80;;;19.00;99.90;;;;;;5010962;28;20422;-76
2022/07/04 21:32:09;;;;;;;1.92;1.00;;;18.90;99.90;;;;;;5024238;28;20534;-77
2022/07/04 21:34:53;;;;;;;2.20;0.90;;;18.90;99.90;;;;;;5001075;28;20423;-78
2022/07/04 21:37:38;;;;;;;1.63;0.90;;;18.90;99.90;;;;;;5023564;28;20464;-76
2022/07/04 21:40:23;;;;;;;1.73;0.88;;;18.90;99.90;;;;;;5003834;28;20492;-75
2022/07/04 21:43:11;;;;;;;3.60;1.08;;;18.80;99.90;;;;;;5014232;28;20528;-78
2022/07/04 21:45:56;;;;;;;2.83;0.90;;;18.80;99.90;;;;;;5008836;28;20407;-76
2022/07/04 21:48:41;;;;;;;1.90;0.88;;;18.70;99.90;;;;;;5007019;28;20505;-76
2022/07/04 21:51:25;;;;;;;2.72;1.05;;;18.70;99.90;;;;;;5024337;28;20462;-78
2022/07/04 21:54:09;;;;;;;2.40;1.00;;;18.50;99.90;;;;;;5014258;28;20533;-76
2022/07/04 21:57:14;;;;;;;3.70;0.90;;;18.40;99.90;;;;;;5021844;28;20447;-78
2022/07/04 21:59:59;;;;;;;3.25;0.90;;;18.40;99.90;;;;;;5012690;28;20792;-77
2022/07/04 22:02:48;;;;;;;2.65;1.00;;;18.30;99.90;;;;;;5013293;28;20497;-78
2022/07/04 22:05:35;;;;;;;2.10;0.85;;;18.30;99.90;;;;;;5005560;28;20423;-79
2022/07/04 22:08:20;;;;;;;1.98;1.00;;;18.20;99.90;;;;;;5013932;28;20415;-79
2022/07/04 22:11:08;;;;;;;4.43;0.97;;;18.10;99.90;;;;;;5016636;28;20467;-79
2022/07/04 22:13:53;;;;;;;3.90;1.10;;;18.10;99.90;;;;;;5020669;28;20493;-79
2022/07/04 22:16:44;;;;;;;2.75;1.15;;;18.00;99.90;;;;;;5033240;28;20775;-78
2022/07/04 22:19:31;;;;;;;4.70;0.95;;;17.90;99.90;;;;;;5033568;28;20416;-78
2022/07/04 22:22:16;;;;;;;3.07;1.00;;;17.80;99.90;;;;;;5014464;28;20535;-78
2022/07/04 22:26:02;;;;;;;;;;;;;;;;;;;;;
2022/07/04 22:37:44;;;;;;;;;;;;;;;;;;;;;
2022/07/04 22:40:57;;;;;;;4.32;1.20;;;17.40;99.90;;;;;;4842127;29;20621;-78
2022/07/04 22:52:50;;;;;;;;;;;;;;;;;;;;;
2022/07/04 23:00:34;;;;;;;2.47;1.20;;;17.10;99.90;;;;;;4894519;29;20438;-78
2022/07/04 23:16:27;;;;;;;;;;;;;;;;;;;;;
2022/07/04 23:31:58;;;;;;;6.85;1.90;;;16.50;99.90;;;;;;4861385;29;20413;-79
2022/07/04 23:35:36;;;;;;;;;;;;;;;;;;;;;
2022/07/04 23:50:49;;;;;;;2.03;1.80;;;16.10;99.90;;;;;;4848912;29;20434;-78